Prince Fielder (DH, TEX)

Avg
0.202
HR
2
wOBA
0.252
nERD
-2.31

Most Recent Player News

Texas Rangers prospect Joey Gallo has been recalled from Triple-A Round Rock.

What It Means:

Gallo missed three weeks with a strained groin, but he went 5-for-16 with a homer and four RBI's in four games since returning to action. Interestingly, he made a start at first base on Sunday, which could eventually be an option with Mitch Moreland and Prince Fielder struggling. He hasn't played the outfield at all this season, but the Rangers figure to give him some looks there with Shin-Soo Choo and Drew Stubbs now both on the disabled list. Assuming the playing time is there, the young slugger is worth a flier in most formats. Expect plenty of strikeouts, but the power potential is huge.

Gallo put up a .305 wOBA in 123 major league plate appearances in 2015 along with a .417 slugging percentage. That said, he had a 46.3 percent strikeout rate in his debut year.

Source: Rotoworld.com
Posted on Monday, May 23rd, 2016 at 7:27pm EDT

Prince Fielder Player Profile

Current Stats
Batting Average0.202
Hits33
SLUG0.294
OBP0.273
wOBA0.252
Statistical RankingsRank
Plate Appearances183#59
Runs11#227
Home Runs2#203
RBI23#59
Stolen Bases0#207
nERD-2.31#354

Fantasy RankingsRank
Fantasy Score -4.66 #345
Projected Stats
Batting Average0.249
Hits133
SLUG0.365
OBP0.321
wOBA0.3
Statistical RankingsRank
Plate Appearances600#82
Runs52#178
Home Runs11#167
RBI71#72
Stolen Bases0#323
Batting Average0.249#196
OPS0.686#243

Fantasy RankingsRank
Fantasy Score -2.29 #235
Remaining This Season
Batting Average0.270
Hits100
SLUG0.396
OBP0.341
wOBA0.32
Statistical RankingsRank
Plate Appearances417#93
Runs41#140
Home Runs9#130
RBI48#74
Stolen Bases0#326
Batting Average0.270#69
OPS0.737#132

Fantasy RankingsRank
Fantasy Score -0.76 #251

Projections By Game

Date Opponent PA AB BB 1B 2B 3B HR R RBI SB HBP SO AVG
2016-04-04 Seattle 4.39 4.11 0.22 0.74 0.20 0.03 0.09 0.47 0.61 0.00 0.03 0.65 0.267
2016-04-05 Seattle 4.41 4.07 0.24 0.80 0.19 0.02 0.11 0.49 0.62 0.00 0.04 0.54 0.281
2016-04-06 Seattle 4.44 4.04 0.33 0.80 0.29 0.02 0.11 0.51 0.65 0.00 0.02 0.53 0.310
2016-04-07 L.A. Angels 4.42 3.83 0.43 0.74 0.12 0.01 0.07 0.33 0.42 0.01 0.09 0.54 0.241
2016-04-08 L.A. Angels 4.49 4.00 0.36 0.84 0.11 0.02 0.06 0.35 0.40 0.00 0.08 0.47 0.253
2016-04-09 L.A. Angels 4.53 4.13 0.30 0.82 0.16 0.01 0.08 0.44 0.46 0.00 0.05 0.58 0.255
2016-04-10 L.A. Angels 4.51 3.96 0.37 0.87 0.13 0.02 0.08 0.34 0.42 0.00 0.13 0.49 0.273
2016-04-11 Seattle 4.37 4.05 0.23 0.78 0.20 0.02 0.12 0.34 0.49 0.00 0.04 0.59 0.278
2016-04-12 Seattle 4.53 4.07 0.35 0.75 0.30 0.01 0.16 0.45 0.63 0.00 0.04 0.53 0.301
2016-04-13 Seattle 4.50 4.09 0.30 0.81 0.17 0.04 0.09 0.27 0.45 0.00 0.06 0.58 0.269
2016-04-14 Baltimore 4.42 3.95 0.37 0.79 0.25 0.01 0.08 0.38 0.68 0.00 0.05 0.58 0.288
2016-04-15 Baltimore 4.42 4.03 0.26 0.80 0.35 0.01 0.12 0.49 0.87 0.00 0.05 0.50 0.318
2016-04-16 Baltimore 4.47 4.01 0.35 0.81 0.29 0.01 0.10 0.55 0.78 0.00 0.05 0.54 0.298
2016-04-19 Houston 4.44 4.07 0.28 0.72 0.26 0.00 0.12 0.49 0.61 0.00 0.05 0.51 0.263
2016-04-20 Houston 4.44 4.07 0.29 0.74 0.27 0.01 0.17 0.61 0.66 0.00 0.06 0.56 0.287
2016-04-21 Houston 4.24 3.86 0.32 0.74 0.22 0.01 0.11 0.53 0.50 0.00 0.05 0.61 0.274
2016-04-22 Chi. White Sox 4.52 4.17 0.29 0.90 0.20 0.00 0.08 0.39 0.55 0.00 0.01 0.64 0.275
2016-04-23 Chi. White Sox 4.52 3.92 0.50 0.80 0.24 0.01 0.08 0.48 0.59 0.01 0.07 0.61 0.284
2016-04-24 Chi. White Sox 4.46 4.05 0.31 0.94 0.25 0.00 0.11 0.41 0.74 0.01 0.03 0.47 0.316
2016-04-25 N.Y. Yankees 4.27 3.87 0.30 0.89 0.18 0.01 0.14 0.52 0.66 0.01 0.05 0.61 0.315
2016-04-26 N.Y. Yankees 4.35 3.97 0.28 0.79 0.26 0.00 0.11 0.54 0.61 0.00 0.02 0.64 0.289
2016-04-29 L.A. Angels 4.29 3.87 0.36 0.68 0.17 0.00 0.07 0.34 0.38 0.00 0.02 0.66 0.237
2016-04-30 L.A. Angels 4.29 3.88 0.35 0.66 0.15 0.01 0.07 0.42 0.44 0.00 0.05 0.47 0.228
Date Opponent PA AB BB 1B 2B 3B HR R RBI SB HBP SO AVG
2016-05-01 L.A. Angels 4.28 3.80 0.36 0.82 0.21 0.01 0.06 0.42 0.51 0.00 0.05 0.61 0.289
2016-05-02 Toronto 4.47 4.05 0.29 0.66 0.24 0.01 0.08 0.44 0.62 0.00 0.08 0.51 0.241
2016-05-03 Toronto 4.41 4.00 0.34 0.63 0.22 0.01 0.08 0.41 0.39 0.01 0.03 0.57 0.234
2016-05-05 Toronto 4.36 3.94 0.37 0.74 0.21 0.00 0.10 0.37 0.45 0.00 0.03 0.53 0.268
2016-05-06 Detroit 4.43 4.15 0.23 0.81 0.20 0.00 0.08 0.30 0.38 0.00 0.02 0.56 0.253
2016-05-07 Detroit 4.46 4.01 0.35 0.61 0.17 0.00 0.04 0.32 0.36 0.00 0.04 0.63 0.201
2016-05-08 Detroit 4.45 4.17 0.24 0.71 0.21 0.01 0.10 0.42 0.44 0.01 0.03 0.55 0.247
2016-05-09 Chi. White Sox 4.31 3.93 0.29 0.64 0.28 0.00 0.10 0.49 0.57 0.00 0.01 0.55 0.254
2016-05-10 Chi. White Sox 4.26 3.68 0.49 0.68 0.21 0.01 0.16 0.57 0.58 0.01 0.02 0.50 0.284
2016-05-11 Chi. White Sox 4.19 3.84 0.28 0.71 0.19 0.01 0.09 0.45 0.59 0.00 0.01 0.68 0.252
2016-05-13 Toronto 4.19 3.70 0.43 0.57 0.17 0.01 0.10 0.48 0.47 0.01 0.04 0.59 0.228
2016-05-14 Toronto 4.15 3.72 0.36 0.60 0.23 0.01 0.08 0.52 0.40 0.01 0.03 0.69 0.248
2016-05-15 Toronto 4.23 3.77 0.39 0.69 0.15 0.01 0.10 0.49 0.56 0.00 0.04 0.61 0.249
2016-05-17 Oakland 4.39 3.89 0.40 0.71 0.18 0.02 0.06 0.31 0.38 0.00 0.03 0.65 0.240
2016-05-18 Oakland 4.44 4.06 0.30 0.65 0.16 0.01 0.08 0.25 0.34 0.01 0.05 0.73 0.217
2016-05-20 Houston 4.48 3.96 0.41 0.77 0.18 0.02 0.09 0.47 0.38 0.00 0.06 0.59 0.257
2016-05-21 Houston 4.53 4.01 0.40 0.74 0.21 0.00 0.08 0.49 0.42 0.00 0.03 0.70 0.250
2016-05-22 Houston 4.47 4.02 0.38 0.73 0.21 0.00 0.12 0.43 0.47 0.00 0.05 0.55 0.256
2016-05-23 L.A. Angels 4.38 3.95 0.34 0.72 0.21 0.01 0.07 0.40 0.38 0.01 0.04 0.66 0.256
2016-05-24 L.A. Angels 4.41 3.86 0.42 0.65 0.23 0.00 0.07 0.40 0.58 0.01 0.09 0.67 0.243
2016-05-25 L.A. Angels 4.31 3.83 0.41 0.76 0.22 0.01 0.05 0.45 0.46 0.01 0.03 0.43 0.270
2016-05-27 Pittsburgh 4.37 3.92 0.38 0.76 0.26 0.01 0.09 0.40 0.58 0.00 0.02 0.60 0.279
2016-05-28 Pittsburgh 4.23 3.86 0.31 0.57 0.19 0.02 0.08 0.47 0.36 0.00 0.03 0.67 0.214
2016-05-29 Pittsburgh 4.37 3.85 0.46 0.69 0.23 0.01 0.14 0.54 0.50 0.01 0.03 0.57 0.270
2016-05-30 Cleveland 4.26 3.88 0.27 0.65 0.25 0.00 0.05 0.40 0.36 0.00 0.04 0.66 0.242
2016-05-31 Cleveland 4.21 3.83 0.30 0.60 0.18 0.00 0.06 0.29 0.30 0.01 0.03 0.66 0.216
Date Opponent PA AB BB 1B 2B 3B HR R RBI SB HBP SO AVG
2016-06-01 Cleveland 4.31 3.93 0.28 0.64 0.16 0.01 0.07 0.34 0.30 0.00 0.03 0.83 0.221

Statlines By Game

Date Opponent PA AB BB 1B 2B 3B HR R RBI SB HBP SO AVG
2016-04-04 Seattle 4 4 0 1 0 0 0 0 1 0 0 2 0.250
2016-04-05 Seattle 5 4 1 0 0 0 0 0 0 0 0 1 0.000
2016-04-06 Seattle 4 3 1 0 0 0 1 1 3 0 0 0 0.333
2016-04-07 L.A. Angels 4 3 0 0 0 0 0 0 1 0 0 2 0.000
2016-04-08 L.A. Angels 5 3 2 1 0 0 0 1 1 0 0 1 0.333
2016-04-09 L.A. Angels 4 4 0 1 0 0 0 0 1 0 0 1 0.250
2016-04-10 L.A. Angels 4 3 1 1 0 0 0 0 0 0 0 1 0.333
2016-04-11 Seattle 5 4 0 1 0 0 0 0 2 0 0 2 0.250
2016-04-12 Seattle 5 4 0 0 0 0 0 0 1 0 0 2 0.000
2016-04-13 Seattle 4 4 0 1 0 0 0 0 0 0 0 1 0.250
2016-04-14 Baltimore 4 4 0 0 0 0 0 0 0 0 0 1 0.000
2016-04-15 Baltimore 4 4 0 0 0 0 0 0 0 0 0 1 0.000
2016-04-16 Baltimore 5 4 1 1 0 0 0 0 1 0 0 0 0.250
2016-04-19 Houston 4 4 0 0 0 0 1 1 2 0 0 0 0.250
2016-04-20 Houston 4 4 0 1 0 0 0 0 0 0 0 0 0.250
2016-04-21 Houston 4 4 0 1 0 0 0 1 1 0 0 0 0.250
2016-04-22 Chi. White Sox 4 4 0 1 1 0 0 0 0 0 0 0 0.500
2016-04-23 Chi. White Sox 5 5 0 0 0 0 0 0 0 0 0 1 0.000
2016-04-24 Chi. White Sox 4 3 1 0 0 0 0 0 0 0 0 0 0.000
2016-04-25 N.Y. Yankees 3 3 0 0 1 0 0 0 0 0 0 1 0.333
2016-04-26 N.Y. Yankees 4 3 1 1 0 0 0 1 1 0 0 0 0.333
2016-04-27 N.Y. Yankees 1 1 0 0 0 0 0 0 0 0 0 0 0.000
2016-04-29 L.A. Angels 4 4 0 1 0 0 0 1 1 0 0 0 0.250
2016-04-30 L.A. Angels 4 4 0 1 1 0 0 1 1 0 0 1 0.500
Date Opponent PA AB BB 1B 2B 3B HR R RBI SB HBP SO AVG
2016-05-01 L.A. Angels 5 5 0 1 0 0 0 1 0 0 0 0 0.200
2016-05-02 Toronto 4 4 0 0 1 0 0 0 0 0 0 1 0.250
2016-05-03 Toronto 4 4 0 0 1 0 0 0 0 0 0 1 0.250
2016-05-04 Toronto 4 4 0 0 0 0 0 0 0 0 0 1 0.000
2016-05-05 Toronto 4 4 0 2 0 0 0 0 1 0 0 0 0.500
2016-05-06 Detroit 4 4 0 0 0 0 0 0 0 0 0 0 0.000
2016-05-07 Detroit 4 4 0 0 0 0 0 0 0 0 0 1 0.000
2016-05-08 Detroit 5 5 0 0 0 0 0 0 0 0 0 2 0.000
2016-05-09 Chi. White Sox 5 4 1 1 0 0 0 0 0 0 0 0 0.250
2016-05-10 Chi. White Sox 5 3 2 0 0 0 0 0 0 0 0 2 0.000
2016-05-11 Chi. White Sox 4 3 1 0 2 0 0 0 2 0 0 0 0.667
2016-05-13 Toronto 3 3 0 0 0 0 0 0 0 0 0 0 0.000
2016-05-14 Toronto 5 5 0 0 0 0 0 0 0 0 0 2 0.000
2016-05-15 Toronto 4 2 1 0 0 0 0 0 0 0 1 1 0.000
2016-05-17 Oakland 4 4 0 2 0 0 0 1 0 0 0 0 0.500
2016-05-18 Oakland 4 4 0 1 0 0 0 0 1 0 0 0 0.250
2016-05-20 Houston 4 3 1 0 1 0 0 0 2 0 0 0 0.333
2016-05-21 Houston 4 4 0 1 0 0 0 0 0 0 0 0 0.250
2016-05-22 Houston 5 4 1 0 1 0 0 2 0 0 0 1 0.250
2016-05-23 L.A. Angels 4 3 1 1 0 0 0 0 0 0 0 1 0.333

DFS Performance

  FanDuel DraftKings FantasyFeud DraftDay FantasyAces FantasyScore Yahoo
Date Opponent FP Value FP Value FP Value FP Value FP Value FP Value FP Value
2016-04-04 Seattle 6.5 1.9 5 1.1 2.25 0.3 7 0.8 1.25 0.3 2 0.4 4
2016-04-05 Seattle 3 0.9 2 0.4 0.5 0.1 1 0.1 0.5 0.1 1 0.2 2
2016-04-06 Seattle 28.7 8.4 20 4.8 12.5 1.7 43 4.5 10 2.1 9 1.7 18
2016-04-07 L.A. Angels 3.5 1.1 2 0.5 1 0.1 2 0.2 0.25 0.1 1 0.2 2
2016-04-08 L.A. Angels 15.7 4.5 11 2.4 6.25 0.8 23 2.4 5 1.1 5 0.9 10
2016-04-09 L.A. Angels 6.5 1.9 5 1.2 2.75 0.4 7 0.7 1.75 0.4 2 0.4 4
2016-04-10 L.A. Angels 6 1.7 5 1.2 1.75 0.2 8 0.8 1.5 0.3 2 0.4 4
2016-04-11 Seattle 10 2.9 7 1.7 4.25 0.5 12 1.4 2.5 0.5 3 0.6 6
2016-04-12 Seattle 3.5 1 2 0.5 1 0.1 1 0.1 0.25 0.1 1 0.2 2
2016-04-13 Seattle 3 0.9 3 0.6 0.75 0.1 2 0.2 0.5 0.1 1 0.2 2
2016-04-14 Baltimore 0 0 0 0 -0.5 -0.1 -4 -0.5 -0.5 -0.1 0 0 0 0
2016-04-15 Baltimore 0 0 0 0 -0.5 -0.1 -4 -0.5 -0.5 -0.1 0 0 0 0
2016-04-16 Baltimore 9.5 3.1 7 1.5 4.25 0.5 12 1.5 3.25 0.7 3 0.6 6
2016-04-19 Houston 22.2 7.4 16 3.6 9.5 1.4 32 4.2 7.75 1.7 7 1.3 14
2016-04-20 Houston 3 1 3 0.7 1.25 0.2 2 0.3 1 0.2 1 0.2 2
2016-04-21 Houston 9.7 3 7 1.8 4.75 0.7 12 1.5 3.5 0.8 3 0.6 6
2016-04-22 Chi. White Sox 9 2.8 8 2.2 3.25 0.5 13 1.6 3 0.6 3 0.6 6
2016-04-23 Chi. White Sox 0 0 0 0 -0.5 -0.1 -5 -0.6 -0.5 -0.1 0 0 0 0
2016-04-24 Chi. White Sox 3 0.9 2 0.5 1 0.1 2 0.3 1 0.2 1 0.2 2
2016-04-25 N.Y. Yankees 6 1.9 5 1.2 1.5 0.2 8 1 1.5 0.3 2 0.4 4
2016-04-26 N.Y. Yankees 12.7 4.4 9 2.2 5.75 0.9 18 2.3 4.5 1 4 0.8 8
2016-04-27 N.Y. Yankees 0 0 0 0 0 0 -1 -0.1 0 0 0 0 0 0
2016-04-29 L.A. Angels 9.7 3.3 7 1.9 4.75 0.7 12 1.6 3.5 0.8 3 0.6 6
2016-04-30 L.A. Angels 15.7 5.4 12 2.7 6.25 0.9 23 3.1 5 1.1 5 0.9 10
  FanDuel DraftKings FantasyFeud DraftDay FantasyAces FantasyScore Yahoo
Date Opponent FP Value FP Value FP Value FP Value FP Value FP Value FP Value
2016-05-01 L.A. Angels 6.2 2.1 5 1.3 2.75 0.4 6 0.8 2.25 0.5 2 0.4 4
2016-05-02 Toronto 6 1.9 5 1.3 1.5 0.2 7 0.9 1.5 0.3 2 0.4 4
2016-05-03 Toronto 6 1.9 5 1.3 1.5 0.2 7 1 1.5 0.3 2 0.4 4
2016-05-04 Toronto 0 0 0 0 -0.5 -0.1 -4 -0.5 -0.5 -0.1 0 0 0 0
2016-05-05 Toronto 9.5 3.1 8 2.4 4.5 0.8 13 1.8 3.25 0.7 3 0.6 6
2016-05-06 Detroit 0 0 0 0 0 0 -4 -0.6 0 0 0 0 0 0
2016-05-07 Detroit 0 0 0 0 -0.5 -0.1 -4 -0.6 -0.5 -0.1 0 0 0 0
2016-05-08 Detroit 0 0 0 0 -1 -0.2 -5 -0.8 -1 -0.2 0 0 0 0
2016-05-09 Chi. White Sox 6 2.2 5 1.2 2.25 0.4 7 1.1 2 0.4 2 0.4 4
2016-05-10 Chi. White Sox 6 2.3 4 1.2 1 0.2 7 1.1 1 0.2 2 0.4 4
2016-05-11 Chi. White Sox 22 8.5 16 4.1 9 1.6 34 5.6 7.5 1.6 7 1.3 14
2016-05-13 Toronto 0 0 0 0 0 0 -3 -0.4 0 0 0 0 0 0
2016-05-14 Toronto 0 0 0 0 -1 -0.2 -5 -0.7 -1 -0.2 0 0 0 0
2016-05-15 Toronto 6 2.1 4 1.4 1.5 0.3 8 1.1 1 0.2 2 0.4 2
2016-05-17 Oakland 9.2 3.5 8 2.6 4 0.7 13 2.1 3.25 0.7 3 0.6 6
2016-05-18 Oakland 6.5 2.5 5 1.6 3.25 0.6 7 1.1 2.25 0.5 2 0.4 4
2016-05-20 Houston 16 5.9 11 3.5 7 1.7 23 3.3 5.5 1.2 5 0.9 10
2016-05-21 Houston 3 1.1 3 0.9 1.25 0.3 2 0.3 1 0.2 1 0.2 2
2016-05-22 Houston 15.4 5.3 11 2.8 5.5 1.1 22 3.1 5 1.1 5 0.9 10
2016-05-23 L.A. Angels 6 2.1 5 1.3 1.75 0.4 8 1.1 1.5 0.3 2 0.4 4

Player History

Year Age Team G PA H HR RBI SB BA
2016 32 Texas 44 183 33 2 23 0 0.202
2015 31 Texas 158 693 187 23 98 0 0.305
2014 30 Texas 42 178 37 3 16 0 0.247
2013 29 Detroit 162 712 174 25 106 1 0.279
2012 28 Detroit 162 690 182 30 108 1 0.313
2011 27 Milwaukee 162 692 170 38 120 1 0.299
2010 26 Milwaukee 161 714 151 32 83 1 0.261
2009 25 Milwaukee 162 719 177 46 141 2 0.299
2008 24 Milwaukee 159 694 162 34 102 3 0.276
2007 23 Milwaukee 158 681 165 50 119 2 0.288
2006 22 Milwaukee 157 648 154 28 81 7 0.271
2005 21 Milwaukee 39 62 17 2 10 0 0.288
Similar Players

Similar Players

Sorry! We don't enough data on this player to make significant comparisons. This is likely due to the fact that this player is new to the league, or is an unknown commodity in terms of talent.